createdAt,value
2022-12-19T00:00:29.237Z,365.05
2022-12-19T00:02:57.064Z,363.15
2022-12-19T00:05:24.892Z,346.08
2022-12-19T00:07:53.779Z,342.48
2022-12-19T00:10:21.672Z,348.40
2022-12-19T00:12:51.576Z,346.27
2022-12-19T00:15:19.340Z,337.95
2022-12-19T00:17:47.840Z,329.70
2022-12-19T00:20:16.052Z,330.23
2022-12-19T00:22:46.389Z,342.17
2022-12-19T00:25:14.198Z,298.10
2022-12-19T00:27:42.572Z,335.60
2022-12-19T00:30:10.646Z,336.48
2022-12-19T00:32:38.856Z,336.60
2022-12-19T00:35:06.751Z,336.88
2022-12-19T00:37:34.514Z,334.58
2022-12-19T00:40:02.252Z,343.77
2022-12-19T00:42:30.021Z,324.85
2022-12-19T00:44:57.925Z,298.98
2022-12-19T00:47:28.741Z,326.80
2022-12-19T00:49:56.484Z,345.52
2022-12-19T00:52:24.288Z,375.30
2022-12-19T00:54:53.062Z,388.83
2022-12-19T00:57:20.826Z,393.77
2022-12-19T00:59:48.756Z,389.75
2022-12-19T01:02:16.684Z,378.83
2022-12-19T01:04:44.587Z,380.77
2022-12-19T01:07:12.452Z,385.33
2022-12-19T01:09:40.383Z,392.23
2022-12-19T01:12:26.690Z,388.38
2022-12-19T01:14:57.771Z,396.58
2022-12-19T01:17:43.596Z,366.95
2022-12-19T01:20:12.982Z,408.20
2022-12-19T01:22:40.638Z,366.40
2022-12-19T01:25:08.516Z,412.95
2022-12-19T01:27:36.714Z,313.40
2022-12-19T01:30:05.886Z,394.80
2022-12-19T01:32:37.288Z,423.00
2022-12-19T01:35:05.298Z,415.85
2022-12-19T01:37:33.180Z,415.73
2022-12-19T01:40:01.061Z,441.42
2022-12-19T01:42:34.961Z,433.98
2022-12-19T01:45:08.658Z,439.02
2022-12-19T01:47:46.603Z,440.48
2022-12-19T01:50:18.577Z,418.00
2022-12-19T01:52:46.379Z,320.65
2022-12-19T01:55:14.185Z,299.70
2022-12-19T01:57:42.033Z,327.20
2022-12-19T02:00:10.153Z,333.15
2022-12-19T02:02:43.306Z,322.35
2022-12-19T02:05:11.677Z,322.17
2022-12-19T02:07:39.945Z,330.80
2022-12-19T02:10:07.761Z,333.02
2022-12-19T02:12:37.165Z,351.50
2022-12-19T02:15:06.426Z,356.58
2022-12-19T02:17:53.461Z,353.08
2022-12-19T02:20:55.519Z,363.35
2022-12-19T02:23:46.968Z,358.40
2022-12-19T02:26:24.119Z,368.90
2022-12-19T02:28:54.735Z,366.08
2022-12-19T02:31:25.963Z,375.30
2022-12-19T02:34:02.389Z,373.27
2022-12-19T02:36:43.625Z,378.10
2022-12-19T02:39:16.293Z,359.40
2022-12-19T02:41:47.332Z,392.88
2022-12-19T02:44:35.398Z,378.48
2022-12-19T02:47:04.853Z,374.40
2022-12-19T02:49:34.597Z,407.45
2022-12-19T02:52:12.729Z,390.42
2022-12-19T02:54:44.803Z,402.02
2022-12-19T02:57:17.824Z,404.52
2022-12-19T03:00:03.122Z,411.02
2022-12-19T03:02:37.275Z,405.17
2022-12-19T03:05:14.265Z,418.95
2022-12-19T03:08:03.132Z,390.73
2022-12-19T03:10:38.591Z,417.42
2022-12-19T03:13:24.676Z,423.55
2022-12-19T03:15:53.426Z,417.63
2022-12-19T03:18:21.201Z,429.65
2022-12-19T03:20:50.979Z,427.52
2022-12-19T03:23:19.172Z,447.02
2022-12-19T03:25:48.507Z,457.85
2022-12-19T03:28:33.517Z,445.75
2022-12-19T03:31:01.868Z,444.30
2022-12-19T03:33:30.795Z,444.23
2022-12-19T03:35:59.158Z,440.67
2022-12-19T03:38:27.773Z,449.10
2022-12-19T03:40:55.616Z,4.25
2022-12-19T03:43:23.913Z,164.93
2022-12-19T03:45:54.847Z,445.20
2022-12-19T03:48:27.160Z,438.63
2022-12-19T03:51:00.112Z,464.73
2022-12-19T03:53:37.516Z,379.80
2022-12-19T03:56:22.035Z,429.77
2022-12-19T03:58:52.579Z,427.73
2022-12-19T04:01:21.825Z,438.42
2022-12-19T04:03:51.187Z,392.00
2022-12-19T04:06:19.140Z,405.45
2022-12-19T04:08:46.913Z,432.80
2022-12-19T04:11:20.965Z,389.45
2022-12-19T04:13:56.992Z,415.55
2022-12-19T04:16:30.313Z,431.83
2022-12-19T04:19:01.028Z,358.30
2022-12-19T04:21:32.124Z,358.13
2022-12-19T04:24:03.895Z,336.27
2022-12-19T04:26:32.527Z,398.42
2022-12-19T04:29:05.975Z,380.88
2022-12-19T04:31:33.916Z,386.02
2022-12-19T04:34:01.861Z,414.77
2022-12-19T04:36:31.904Z,414.45
2022-12-19T04:38:59.997Z,435.15
2022-12-19T04:41:28.457Z,432.17
2022-12-19T04:43:56.341Z,470.95
2022-12-19T04:46:24.275Z,413.85
2022-12-19T04:48:52.178Z,394.45
2022-12-19T04:51:20.143Z,402.20
2022-12-19T04:53:47.796Z,408.33
2022-12-19T04:56:15.607Z,387.92
2022-12-19T04:58:43.346Z,418.85
2022-12-19T05:01:11.286Z,412.08
2022-12-19T05:03:39.242Z,378.73
2022-12-19T05:06:15.115Z,399.02
2022-12-19T05:08:43.763Z,392.65
2022-12-19T05:11:17.371Z,401.35
2022-12-19T05:13:46.997Z,362.35
2022-12-19T05:16:16.162Z,396.75
2022-12-19T05:18:44.169Z,408.77
2022-12-19T05:21:12.282Z,420.00
2022-12-19T05:23:40.008Z,398.77
2022-12-19T05:26:08.053Z,385.42
2022-12-19T05:28:35.891Z,386.85
2022-12-19T05:31:12.843Z,387.63
2022-12-19T05:33:40.863Z,409.80
2022-12-19T05:36:09.188Z,380.25
2022-12-19T05:38:37.148Z,420.35
2022-12-19T05:41:09.013Z,435.30
2022-12-19T05:43:37.197Z,414.88
2022-12-19T05:46:05.773Z,418.13
2022-12-19T05:48:33.750Z,364.92
2022-12-19T05:51:01.486Z,443.15
2022-12-19T05:53:29.160Z,411.15
2022-12-19T05:56:09.675Z,399.20
2022-12-19T05:58:38.885Z,378.58
2022-12-19T06:01:10.852Z,398.30
2022-12-19T06:03:39.044Z,398.90
2022-12-19T06:06:07.812Z,388.85
2022-12-19T06:08:37.921Z,405.02
2022-12-19T06:11:06.468Z,411.23
2022-12-19T06:13:34.258Z,373.40
2022-12-19T06:16:02.965Z,404.73
2022-12-19T06:18:31.084Z,399.20
2022-12-19T06:21:03.072Z,404.85
2022-12-19T06:23:32.173Z,453.92
2022-12-19T06:26:00.356Z,403.35
2022-12-19T06:28:28.541Z,409.08
2022-12-19T06:31:00.311Z,425.90
2022-12-19T06:33:28.257Z,452.50
2022-12-19T06:36:06.532Z,412.63
2022-12-19T06:38:36.492Z,446.55
2022-12-19T06:41:23.486Z,463.05
2022-12-19T06:43:53.881Z,431.83
2022-12-19T06:46:22.098Z,425.30
2022-12-19T06:48:50.059Z,405.67
2022-12-19T06:51:18.169Z,440.98
2022-12-19T06:53:45.998Z,438.50
2022-12-19T06:56:18.272Z,439.88
2022-12-19T06:58:46.359Z,496.45
2022-12-19T07:01:17.977Z,482.05
2022-12-19T07:03:46.489Z,522.08
2022-12-19T07:06:14.515Z,513.22
2022-12-19T07:08:42.570Z,502.90
2022-12-19T07:11:10.322Z,539.00
2022-12-19T07:13:38.114Z,512.72
2022-12-19T07:16:06.984Z,574.33
2022-12-19T07:18:38.679Z,508.65
2022-12-19T07:21:08.021Z,502.70
2022-12-19T07:23:37.367Z,511.00
2022-12-19T07:26:05.384Z,502.77
2022-12-19T07:28:34.951Z,486.33
2022-12-19T07:31:02.848Z,497.13
2022-12-19T07:33:30.898Z,485.67
2022-12-19T07:35:58.949Z,495.92
2022-12-19T07:38:26.603Z,479.52
2022-12-19T07:40:54.290Z,538.83
2022-12-19T07:43:22.156Z,509.45
2022-12-19T07:45:55.087Z,529.03
2022-12-19T07:50:58.691Z,483.55
2022-12-19T07:53:26.822Z,480.83
2022-12-19T07:55:54.670Z,546.67
2022-12-19T07:58:23.101Z,574.10
2022-12-19T08:00:57.501Z,519.28
2022-12-19T08:03:26.007Z,505.35
2022-12-19T08:05:53.875Z,572.78
2022-12-19T08:08:21.855Z,532.80
2022-12-19T08:10:49.885Z,511.52
2022-12-19T08:13:17.822Z,465.35
2022-12-19T08:15:45.630Z,526.92
2022-12-19T08:18:13.409Z,502.40
2022-12-19T08:20:41.348Z,469.73
2022-12-19T08:23:09.835Z,498.65
2022-12-19T08:25:37.941Z,453.67
2022-12-19T08:28:08.198Z,450.98
2022-12-19T08:30:42.437Z,475.17
2022-12-19T08:33:13.259Z,451.08
2022-12-19T08:35:41.031Z,457.88
2022-12-19T08:38:09.603Z,428.27
2022-12-19T08:40:39.580Z,469.73
2022-12-19T08:43:10.049Z,445.33
2022-12-19T08:45:38.095Z,456.90
2022-12-19T08:48:07.937Z,489.98
2022-12-19T08:50:37.495Z,429.63
2022-12-19T08:53:05.486Z,471.85
2022-12-19T08:55:33.735Z,423.50
2022-12-19T08:58:04.604Z,445.00
2022-12-19T09:00:34.658Z,404.88
2022-12-19T09:03:02.400Z,418.92
2022-12-19T09:06:00.195Z,505.73
2022-12-19T09:08:19.145Z,470.38
2022-12-19T09:10:46.911Z,435.40
2022-12-19T09:13:15.283Z,450.75
2022-12-19T09:15:43.269Z,457.45
2022-12-19T09:18:11.191Z,413.45
2022-12-19T09:20:40.154Z,459.27
2022-12-19T09:23:07.915Z,471.67
2022-12-19T09:25:35.957Z,446.05
2022-12-19T09:30:58.545Z,463.33
2022-12-19T09:33:29.190Z,484.98
2022-12-19T09:36:00.396Z,500.75
2022-12-19T09:38:29.007Z,481.15
2022-12-19T09:41:02.007Z,491.13
2022-12-19T09:43:38.043Z,478.52
2022-12-19T09:46:08.975Z,463.42
2022-12-19T09:48:39.819Z,464.85
2022-12-19T09:51:13.767Z,483.73
2022-12-19T09:53:54.239Z,493.00
2022-12-19T09:56:23.721Z,494.55
2022-12-19T09:58:55.301Z,508.35
2022-12-19T10:01:36.291Z,484.25
2022-12-19T10:04:11.171Z,470.70
2022-12-19T10:07:19.849Z,506.38
2022-12-19T10:10:50.353Z,436.98
2022-12-19T10:12:53.846Z,454.27
2022-12-19T10:15:59.766Z,490.67
2022-12-19T10:18:44.276Z,465.92
2022-12-19T10:21:59.489Z,442.90
2022-12-19T10:24:26.712Z,464.77
2022-12-19T10:27:01.506Z,452.83
2022-12-19T10:29:29.161Z,482.25
2022-12-19T10:32:00.234Z,457.30
2022-12-19T10:34:40.731Z,429.92
2022-12-19T10:37:29.685Z,444.95
2022-12-19T10:40:29.156Z,444.45
2022-12-19T10:43:10.737Z,434.95
2022-12-19T10:45:46.822Z,511.88
2022-12-19T10:48:18.022Z,443.58
2022-12-19T10:50:48.016Z,476.35
2022-12-19T10:53:16.843Z,489.80
2022-12-19T10:55:46.977Z,452.92
2022-12-19T10:58:28.784Z,487.90
2022-12-19T11:01:04.323Z,437.27
2022-12-19T11:03:35.307Z,467.35
2022-12-19T11:06:04.402Z,487.15
2022-12-19T11:08:38.552Z,478.75
2022-12-19T11:13:57.337Z,488.05
2022-12-19T11:17:47.736Z,466.17
2022-12-19T11:22:28.555Z,434.27
2022-12-19T11:29:17.101Z,505.27
2022-12-19T11:29:32.462Z,455.70
2022-12-19T11:30:41.130Z,461.63
2022-12-19T11:30:47.112Z,470.13
2022-12-19T11:32:14.055Z,472.98
2022-12-19T11:34:03.057Z,460.05
2022-12-19T11:36:48.763Z,452.58
2022-12-19T11:39:26.338Z,473.92
2022-12-19T11:42:00.092Z,501.08
2022-12-19T11:44:30.804Z,478.95
2022-12-19T11:47:07.186Z,507.65
2022-12-19T11:49:47.653Z,494.15
2022-12-19T11:53:03.280Z,511.48
2022-12-19T11:55:27.760Z,501.38
2022-12-19T11:57:58.789Z,532.30
2022-12-19T12:00:26.688Z,520.30
2022-12-19T12:02:54.483Z,505.63
2022-12-19T12:05:41.005Z,469.33
2022-12-19T12:09:26.196Z,467.77
2022-12-19T12:16:16.128Z,466.90
2022-12-19T12:23:46.584Z,491.52
2022-12-19T12:30:34.869Z,489.17
2022-12-19T12:31:12.016Z,465.30
2022-12-19T12:31:48.343Z,496.20
2022-12-19T12:31:54.111Z,518.97
2022-12-19T12:32:02.266Z,494.75
2022-12-19T12:35:38.454Z,499.08
2022-12-19T12:37:52.466Z,475.73
2022-12-19T12:38:27.030Z,505.55
2022-12-19T12:41:14.788Z,476.20
2022-12-19T12:44:10.335Z,454.92
2022-12-19T12:46:43.296Z,463.88
2022-12-19T12:49:30.374Z,455.83
2022-12-19T12:52:00.559Z,469.90
2022-12-19T12:54:33.245Z,455.77
2022-12-19T12:57:01.084Z,486.63
2022-12-19T12:59:30.251Z,474.77
2022-12-19T13:02:02.928Z,458.77
2022-12-19T13:04:42.292Z,504.55
2022-12-19T13:07:22.413Z,490.20
2022-12-19T13:09:54.201Z,487.50
2022-12-19T13:12:45.172Z,481.10
2022-12-19T13:15:37.097Z,479.60
2022-12-19T13:18:11.107Z,455.83
2022-12-19T13:20:49.164Z,479.67
2022-12-19T13:23:42.518Z,472.17
2022-12-19T13:26:22.471Z,438.25
2022-12-19T13:28:50.235Z,469.33
2022-12-19T13:31:21.874Z,445.98
2022-12-19T13:33:56.035Z,446.58
2022-12-19T13:39:54.015Z,470.73
2022-12-19T13:40:10.929Z,488.40
2022-12-19T13:43:10.757Z,476.75
2022-12-19T13:45:41.194Z,502.08
2022-12-19T13:48:15.024Z,465.70
2022-12-19T13:50:43.660Z,506.73
2022-12-19T13:53:16.015Z,484.75
2022-12-19T13:55:43.922Z,509.70
2022-12-19T13:58:48.585Z,474.92
2022-12-19T14:01:28.203Z,459.10
2022-12-19T14:03:57.512Z,470.00
2022-12-19T14:06:46.512Z,422.95
2022-12-19T14:11:33.101Z,469.88
2022-12-19T14:13:50.377Z,477.60
2022-12-19T14:15:32.898Z,473.92
2022-12-19T14:18:43.248Z,488.00
2022-12-19T14:22:02.675Z,502.55
2022-12-19T14:23:43.802Z,460.58
2022-12-19T14:28:21.684Z,507.70
2022-12-19T14:30:26.730Z,456.25
2022-12-19T14:33:40.374Z,488.17
2022-12-19T14:36:10.211Z,456.55
2022-12-19T14:39:24.766Z,445.73
2022-12-19T14:41:08.615Z,459.48
2022-12-19T14:44:00.111Z,465.40
2022-12-19T14:53:52.265Z,485.13
2022-12-19T14:54:03.496Z,474.55
2022-12-19T14:54:28.661Z,471.48
2022-12-19T14:56:08.265Z,441.15
2022-12-19T14:58:53.398Z,451.42
2022-12-19T15:01:08.961Z,422.13
2022-12-19T15:04:48.391Z,464.05
2022-12-19T15:07:09.977Z,448.40
2022-12-19T15:11:04.816Z,453.70
2022-12-19T15:14:37.439Z,491.85
2022-12-19T15:15:48.416Z,458.73
2022-12-19T15:18:42.845Z,471.58
2022-12-19T15:21:14.565Z,490.52
2022-12-19T15:23:45.869Z,429.20
2022-12-19T15:26:15.211Z,466.13
2022-12-19T15:28:54.974Z,472.70
2022-12-19T15:31:26.395Z,489.20
2022-12-19T15:36:45.041Z,454.35
2022-12-19T15:39:12.884Z,475.25
2022-12-19T15:41:40.741Z,458.92
2022-12-19T15:44:10.912Z,462.30
2022-12-19T15:46:42.966Z,481.75
2022-12-19T15:49:18.616Z,479.33
2022-12-19T15:51:47.091Z,459.23
2022-12-19T15:57:03.022Z,494.38
2022-12-19T15:59:37.770Z,468.73
2022-12-19T16:02:15.045Z,495.52
2022-12-19T16:04:43.259Z,407.63
2022-12-19T16:07:24.191Z,440.95
2022-12-19T16:09:54.955Z,444.48
2022-12-19T16:12:27.830Z,487.75
2022-12-19T16:14:57.240Z,461.42
2022-12-19T16:17:28.302Z,477.55
2022-12-19T16:19:56.069Z,447.00
2022-12-19T16:22:25.673Z,505.80
2022-12-19T16:24:53.793Z,466.05
2022-12-19T16:27:26.481Z,464.15
2022-12-19T16:29:54.583Z,474.02
2022-12-19T16:32:25.979Z,508.70
2022-12-19T16:34:54.542Z,478.17
2022-12-19T16:37:25.908Z,449.65
2022-12-19T16:39:56.421Z,547.40
2022-12-19T16:42:24.377Z,482.88
2022-12-19T16:44:52.313Z,472.63
2022-12-19T16:47:20.237Z,526.95
2022-12-19T16:49:50.661Z,493.63
2022-12-19T16:52:19.019Z,523.53
2022-12-19T16:54:46.757Z,480.00
2022-12-19T16:57:19.887Z,462.25
2022-12-19T16:59:47.935Z,463.85
2022-12-19T17:02:34.471Z,475.80
2022-12-19T17:05:02.287Z,444.17
2022-12-19T17:07:30.321Z,452.90
2022-12-19T17:09:58.246Z,470.80
2022-12-19T17:12:27.684Z,468.05
2022-12-19T17:14:55.598Z,465.25
2022-12-19T17:17:23.395Z,475.70
2022-12-19T17:19:51.400Z,461.33
2022-12-19T17:22:21.480Z,478.75
2022-12-19T17:24:49.812Z,466.23
2022-12-19T17:27:19.302Z,466.48
2022-12-19T17:29:47.363Z,491.92
2022-12-19T17:32:23.159Z,491.10
2022-12-19T17:34:52.106Z,527.75
2022-12-19T17:37:19.969Z,502.52
2022-12-19T17:39:48.546Z,483.20
2022-12-19T17:42:24.926Z,511.50
2022-12-19T17:44:52.828Z,505.30
2022-12-19T17:47:21.338Z,523.50
2022-12-19T17:49:49.519Z,529.75
2022-12-19T17:52:19.521Z,518.90
2022-12-19T17:54:47.320Z,486.95
2022-12-19T17:57:15.901Z,497.48
2022-12-19T17:59:46.650Z,500.50
2022-12-19T18:02:21.999Z,498.88
2022-12-19T18:04:50.246Z,522.53
2022-12-19T18:07:18.067Z,526.97
2022-12-19T18:09:48.311Z,511.08
2022-12-19T18:14:46.682Z,512.90
2022-12-19T18:17:16.977Z,499.30
2022-12-19T18:19:44.970Z,469.27
2022-12-19T18:22:15.942Z,509.20
2022-12-19T18:24:43.735Z,514.20
2022-12-19T18:27:11.596Z,499.35
2022-12-19T18:29:39.494Z,476.40
2022-12-19T18:32:07.995Z,526.13
2022-12-19T18:34:37.892Z,498.38
2022-12-19T18:37:05.759Z,497.40
2022-12-19T18:39:34.295Z,480.02
2022-12-19T18:42:02.296Z,456.95
2022-12-19T18:44:30.069Z,446.70
2022-12-19T18:46:57.948Z,448.50
2022-12-19T18:49:27.814Z,432.63
2022-12-19T18:51:55.684Z,435.73
2022-12-19T18:54:25.397Z,444.67
2022-12-19T18:56:53.365Z,446.17
2022-12-19T18:59:21.267Z,443.80
2022-12-19T19:01:52.680Z,433.73
2022-12-19T19:04:20.639Z,420.00
2022-12-19T19:06:52.639Z,408.15
2022-12-19T19:09:21.553Z,412.77
2022-12-19T19:11:49.463Z,409.63
2022-12-19T19:14:19.703Z,417.38
2022-12-19T19:19:17.625Z,413.02
2022-12-19T19:24:18.671Z,414.48
2022-12-19T19:26:46.566Z,418.35
2022-12-19T19:29:15.065Z,414.20
2022-12-19T19:31:45.184Z,419.42
2022-12-19T19:34:15.643Z,421.38
2022-12-19T19:36:49.607Z,420.25
2022-12-19T19:39:19.866Z,421.98
2022-12-19T19:44:15.566Z,419.88
2022-12-19T19:46:43.517Z,411.40
2022-12-19T19:49:12.571Z,419.80
2022-12-19T19:51:40.485Z,396.92
2022-12-19T19:54:08.375Z,411.40
2022-12-19T19:56:36.122Z,414.58
2022-12-19T19:59:03.973Z,420.48
2022-12-19T20:01:32.017Z,419.30
2022-12-19T20:04:00.045Z,418.20
2022-12-19T20:06:27.949Z,393.02
2022-12-19T20:08:55.953Z,412.83
2022-12-19T20:11:23.663Z,413.08
2022-12-19T20:13:51.635Z,403.20
2022-12-19T20:16:20.194Z,409.25
2022-12-19T20:18:51.733Z,404.05
2022-12-19T20:21:20.241Z,410.02
2022-12-19T20:23:48.171Z,369.77
2022-12-19T20:26:16.735Z,335.17
2022-12-19T20:28:49.983Z,378.55
2022-12-19T20:31:22.198Z,307.60
2022-12-19T20:33:50.704Z,361.67
2022-12-19T20:36:18.816Z,364.00
2022-12-19T20:38:47.194Z,338.60
2022-12-19T20:41:17.576Z,323.58
2022-12-19T20:43:45.428Z,351.48
2022-12-19T20:46:16.039Z,354.77
2022-12-19T20:48:45.256Z,353.02
2022-12-19T20:51:13.239Z,343.60
2022-12-19T20:53:41.837Z,351.45
2022-12-19T20:56:10.602Z,358.40
2022-12-19T20:58:39.126Z,357.25
2022-12-19T21:01:33.699Z,284.98
2022-12-19T21:04:03.979Z,358.30
2022-12-19T21:06:32.106Z,372.48
2022-12-19T21:09:00.036Z,374.65
2022-12-19T21:11:28.039Z,378.48
2022-12-19T21:13:56.286Z,380.85
2022-12-19T21:16:24.844Z,362.67
2022-12-19T21:18:52.703Z,390.50
2022-12-19T21:21:22.738Z,385.42
2022-12-19T21:23:51.267Z,391.08
2022-12-19T21:26:19.426Z,385.98
2022-12-19T21:28:47.228Z,373.70
2022-12-19T21:31:19.720Z,371.45
2022-12-19T21:33:51.255Z,376.30
2022-12-19T21:36:20.889Z,395.08
2022-12-19T21:38:49.281Z,395.90
2022-12-19T21:41:19.243Z,396.95
2022-12-19T21:43:52.622Z,396.50
2022-12-19T21:46:21.564Z,400.30
2022-12-19T21:48:51.510Z,409.60
2022-12-19T21:51:22.911Z,401.85
2022-12-19T21:53:53.961Z,395.30
2022-12-19T21:56:30.240Z,399.40
2022-12-19T21:58:59.431Z,401.42
2022-12-19T22:01:27.844Z,396.92
2022-12-19T22:03:59.899Z,394.05
2022-12-19T22:06:29.518Z,399.48
2022-12-19T22:08:57.544Z,402.85
2022-12-19T22:11:25.542Z,314.38
2022-12-19T22:13:53.767Z,323.88
2022-12-19T22:16:24.105Z,328.58
2022-12-19T22:18:53.167Z,323.45
2022-12-19T22:21:21.215Z,328.80
2022-12-19T22:23:51.554Z,318.23
2022-12-19T22:28:52.435Z,302.45
2022-12-19T22:31:27.545Z,343.98
2022-12-19T22:33:56.581Z,309.70
2022-12-19T22:36:28.265Z,315.95
2022-12-19T22:38:57.145Z,325.52
2022-12-19T22:41:25.087Z,318.83
2022-12-19T22:43:53.337Z,320.75
2022-12-19T22:46:22.542Z,338.98
2022-12-19T22:48:51.670Z,317.95
2022-12-19T22:51:20.196Z,340.85
2022-12-19T22:53:48.199Z,366.70
2022-12-19T22:56:17.486Z,351.08
2022-12-19T22:58:46.699Z,367.02
2022-12-19T23:01:16.483Z,345.77
2022-12-19T23:03:48.131Z,335.85
2022-12-19T23:06:16.486Z,335.00
2022-12-19T23:08:44.990Z,366.08
2022-12-19T23:11:16.233Z,372.67
2022-12-19T23:13:44.784Z,379.23
2022-12-19T23:16:15.934Z,358.70
2022-12-19T23:18:43.917Z,365.05
2022-12-19T23:21:11.568Z,349.52
2022-12-19T23:23:40.174Z,371.02
2022-12-19T23:26:14.977Z,390.90
2022-12-19T23:28:44.760Z,375.05
2022-12-19T23:31:13.700Z,402.55
2022-12-19T23:33:42.106Z,415.95
2022-12-19T23:36:10.953Z,442.85
2022-12-19T23:38:38.725Z,455.35
2022-12-19T23:41:08.553Z,428.55
2022-12-19T23:43:36.952Z,429.25
2022-12-19T23:46:16.703Z,449.13
2022-12-19T23:48:45.078Z,468.33
2022-12-19T23:51:15.091Z,456.85
2022-12-19T23:53:42.992Z,470.88
2022-12-19T23:56:19.577Z,458.38
2022-12-19T23:58:47.944Z,464.20
